sensor_id;sensor_type;location;lat;lon;timestamp;temperature;humidity
2729;DHT22;1372;47.956;7.830;2023-01-08T00:00:34;5.80;99.90
2729;DHT22;1372;47.956;7.830;2023-01-08T00:03:03;5.80;99.90
2729;DHT22;1372;47.956;7.830;2023-01-08T00:05:33;5.70;99.90
2729;DHT22;1372;47.956;7.830;2023-01-08T00:08:05;5.70;99.90
2729;DHT22;1372;47.956;7.830;2023-01-08T00:10:35;5.70;99.90
2729;DHT22;1372;47.956;7.830;2023-01-08T00:13:05;5.60;99.90
2729;DHT22;1372;47.956;7.830;2023-01-08T00:15:34;5.60;99.90
2729;DHT22;1372;47.956;7.830;2023-01-08T00:18:03;5.70;99.90
2729;DHT22;1372;47.956;7.830;2023-01-08T00:20:34;5.70;99.90
2729;DHT22;1372;47.956;7.830;2023-01-08T00:23:03;5.90;99.90
2729;DHT22;1372;47.956;7.830;2023-01-08T00:25:33;6.00;99.90
2729;DHT22;1372;47.956;7.830;2023-01-08T00:28:02;6.10;99.90
2729;DHT22;1372;47.956;7.830;2023-01-08T00:30:30;6.10;99.90
2729;DHT22;1372;47.956;7.830;2023-01-08T00:32:59;6.20;99.90
2729;DHT22;1372;47.956;7.830;2023-01-08T00:35:27;6.10;99.90
2729;DHT22;1372;47.956;7.830;2023-01-08T00:37:58;6.00;99.90
2729;DHT22;1372;47.956;7.830;2023-01-08T00:40:29;6.10;99.90
2729;DHT22;1372;47.956;7.830;2023-01-08T00:42:57;6.20;99.90
2729;DHT22;1372;47.956;7.830;2023-01-08T00:45:31;6.10;99.90
2729;DHT22;1372;47.956;7.830;2023-01-08T00:48:00;6.10;99.90
2729;DHT22;1372;47.956;7.830;2023-01-08T00:50:31;6.10;99.90
2729;DHT22;1372;47.956;7.830;2023-01-08T00:53:01;6.20;99.90
2729;DHT22;1372;47.956;7.830;2023-01-08T00:55:30;6.20;99.90
2729;DHT22;1372;47.956;7.830;2023-01-08T00:57:58;6.20;99.90
2729;DHT22;1372;47.956;7.830;2023-01-08T01:00:29;6.20;99.90
2729;DHT22;1372;47.956;7.830;2023-01-08T01:02:58;6.30;99.90
2729;DHT22;1372;47.956;7.830;2023-01-08T01:05:29;6.40;99.90
2729;DHT22;1372;47.956;7.830;2023-01-08T01:07:57;6.40;99.90
2729;DHT22;1372;47.956;7.830;2023-01-08T01:10:27;6.40;99.90
2729;DHT22;1372;47.956;7.830;2023-01-08T01:12:56;6.50;99.90
2729;DHT22;1372;47.956;7.830;2023-01-08T01:15:24;6.50;99.90
2729;DHT22;1372;47.956;7.830;2023-01-08T01:17:53;6.50;99.90
2729;DHT22;1372;47.956;7.830;2023-01-08T01:20:21;6.50;99.90
2729;DHT22;1372;47.956;7.830;2023-01-08T01:22:52;6.60;99.90
2729;DHT22;1372;47.956;7.830;2023-01-08T01:25:21;6.60;99.90
2729;DHT22;1372;47.956;7.830;2023-01-08T01:27:51;6.60;99.90
2729;DHT22;1372;47.956;7.830;2023-01-08T01:30:19;6.70;99.90
2729;DHT22;1372;47.956;7.830;2023-01-08T01:32:48;6.70;99.90
2729;DHT22;1372;47.956;7.830;2023-01-08T01:35:17;6.70;99.90
2729;DHT22;1372;47.956;7.830;2023-01-08T01:37:45;6.70;99.90
2729;DHT22;1372;47.956;7.830;2023-01-08T01:40:14;6.60;99.90
2729;DHT22;1372;47.956;7.830;2023-01-08T01:42:42;6.80;99.90
2729;DHT22;1372;47.956;7.830;2023-01-08T01:45:18;6.80;99.90
2729;DHT22;1372;47.956;7.830;2023-01-08T01:47:53;6.80;99.90
2729;DHT22;1372;47.956;7.830;2023-01-08T01:50:27;6.70;99.90
2729;DHT22;1372;47.956;7.830;2023-01-08T01:53:02;6.90;99.90
2729;DHT22;1372;47.956;7.830;2023-01-08T01:55:34;6.90;99.90
2729;DHT22;1372;47.956;7.830;2023-01-08T01:58:09;7.00;99.90
2729;DHT22;1372;47.956;7.830;2023-01-08T02:00:41;7.00;99.90
2729;DHT22;1372;47.956;7.830;2023-01-08T02:03:13;6.90;99.90
2729;DHT22;1372;47.956;7.830;2023-01-08T02:05:49;6.90;99.90
2729;DHT22;1372;47.956;7.830;2023-01-08T02:08:36;7.00;99.90
2729;DHT22;1372;47.956;7.830;2023-01-08T02:11:11;7.10;99.90
2729;DHT22;1372;47.956;7.830;2023-01-08T02:13:46;7.10;99.90
2729;DHT22;1372;47.956;7.830;2023-01-08T02:16:24;7.10;99.90
2729;DHT22;1372;47.956;7.830;2023-01-08T02:18:58;7.00;99.90
2729;DHT22;1372;47.956;7.830;2023-01-08T02:21:37;7.00;99.90
2729;DHT22;1372;47.956;7.830;2023-01-08T02:24:15;7.10;99.90
2729;DHT22;1372;47.956;7.830;2023-01-08T02:26:52;7.10;99.90
2729;DHT22;1372;47.956;7.830;2023-01-08T02:29:25;7.20;99.90
2729;DHT22;1372;47.956;7.830;2023-01-08T02:31:55;7.30;99.90
2729;DHT22;1372;47.956;7.830;2023-01-08T02:34:25;7.40;99.90
2729;DHT22;1372;47.956;7.830;2023-01-08T02:36:56;7.50;99.90
2729;DHT22;1372;47.956;7.830;2023-01-08T02:39:44;7.60;99.90
2729;DHT22;1372;47.956;7.830;2023-01-08T02:42:32;7.60;99.90
2729;DHT22;1372;47.956;7.830;2023-01-08T02:45:10;7.60;99.90
2729;DHT22;1372;47.956;7.830;2023-01-08T02:47:51;7.60;99.90
2729;DHT22;1372;47.956;7.830;2023-01-08T02:50:25;7.70;99.90
2729;DHT22;1372;47.956;7.830;2023-01-08T02:53:03;7.70;99.90
2729;DHT22;1372;47.956;7.830;2023-01-08T02:55:40;7.70;99.90
2729;DHT22;1372;47.956;7.830;2023-01-08T02:58:13;7.80;99.90
2729;DHT22;1372;47.956;7.830;2023-01-08T03:00:43;7.80;99.90
2729;DHT22;1372;47.956;7.830;2023-01-08T03:03:16;8.00;99.90
2729;DHT22;1372;47.956;7.830;2023-01-08T03:05:52;7.90;99.90
2729;DHT22;1372;47.956;7.830;2023-01-08T03:08:22;8.00;99.90
2729;DHT22;1372;47.956;7.830;2023-01-08T03:10:55;8.40;99.90
2729;DHT22;1372;47.956;7.830;2023-01-08T03:13:33;8.80;99.90
2729;DHT22;1372;47.956;7.830;2023-01-08T03:16:09;9.20;99.90
2729;DHT22;1372;47.956;7.830;2023-01-08T03:18:43;9.40;99.90
2729;DHT22;1372;47.956;7.830;2023-01-08T03:21:15;9.60;99.90
2729;DHT22;1372;47.956;7.830;2023-01-08T03:23:46;9.70;99.90
2729;DHT22;1372;47.956;7.830;2023-01-08T03:26:21;9.70;99.90
2729;DHT22;1372;47.956;7.830;2023-01-08T03:28:54;9.70;99.90
2729;DHT22;1372;47.956;7.830;2023-01-08T03:31:27;9.70;99.90
2729;DHT22;1372;47.956;7.830;2023-01-08T03:33:59;9.60;99.90
2729;DHT22;1372;47.956;7.830;2023-01-08T03:36:30;9.70;99.90
2729;DHT22;1372;47.956;7.830;2023-01-08T03:39:07;9.60;99.90
2729;DHT22;1372;47.956;7.830;2023-01-08T03:41:41;9.50;99.90
2729;DHT22;1372;47.956;7.830;2023-01-08T03:44:14;9.30;99.90
2729;DHT22;1372;47.956;7.830;2023-01-08T03:46:47;9.20;99.90
2729;DHT22;1372;47.956;7.830;2023-01-08T03:49:19;9.10;99.90
2729;DHT22;1372;47.956;7.830;2023-01-08T03:51:50;9.00;99.90
2729;DHT22;1372;47.956;7.830;2023-01-08T03:54:21;9.00;99.90
2729;DHT22;1372;47.956;7.830;2023-01-08T03:56:51;8.90;99.90
2729;DHT22;1372;47.956;7.830;2023-01-08T03:59:21;8.90;99.90
2729;DHT22;1372;47.956;7.830;2023-01-08T04:01:51;8.90;99.90
2729;DHT22;1372;47.956;7.830;2023-01-08T04:04:20;8.80;99.90
2729;DHT22;1372;47.956;7.830;2023-01-08T04:06:51;8.70;99.90
2729;DHT22;1372;47.956;7.830;2023-01-08T04:09:23;8.60;99.90
2729;DHT22;1372;47.956;7.830;2023-01-08T04:11:53;8.50;99.90
2729;DHT22;1372;47.956;7.830;2023-01-08T04:14:25;8.50;99.90
2729;DHT22;1372;47.956;7.830;2023-01-08T04:16:54;8.50;99.90
2729;DHT22;1372;47.956;7.830;2023-01-08T04:19:24;8.70;99.90
2729;DHT22;1372;47.956;7.830;2023-01-08T04:21:52;8.70;99.90
2729;DHT22;1372;47.956;7.830;2023-01-08T04:24:21;8.60;99.90
2729;DHT22;1372;47.956;7.830;2023-01-08T04:26:49;8.70;99.90
2729;DHT22;1372;47.956;7.830;2023-01-08T04:29:18;8.60;99.90
2729;DHT22;1372;47.956;7.830;2023-01-08T04:31:48;8.70;99.90
2729;DHT22;1372;47.956;7.830;2023-01-08T04:34:17;8.80;99.90
2729;DHT22;1372;47.956;7.830;2023-01-08T04:36:45;8.80;99.90
2729;DHT22;1372;47.956;7.830;2023-01-08T04:39:14;8.90;99.90
2729;DHT22;1372;47.956;7.830;2023-01-08T04:41:45;8.90;99.90
2729;DHT22;1372;47.956;7.830;2023-01-08T04:44:14;8.90;99.90
2729;DHT22;1372;47.956;7.830;2023-01-08T04:46:42;8.80;99.90
2729;DHT22;1372;47.956;7.830;2023-01-08T04:49:13;8.80;99.90
2729;DHT22;1372;47.956;7.830;2023-01-08T04:51:41;8.80;99.90
2729;DHT22;1372;47.956;7.830;2023-01-08T04:54:13;8.70;99.90
2729;DHT22;1372;47.956;7.830;2023-01-08T04:56:42;8.70;99.90
2729;DHT22;1372;47.956;7.830;2023-01-08T04:59:11;8.80;99.90
2729;DHT22;1372;47.956;7.830;2023-01-08T05:01:39;8.80;99.90
2729;DHT22;1372;47.956;7.830;2023-01-08T05:04:10;8.80;99.90
2729;DHT22;1372;47.956;7.830;2023-01-08T05:06:40;8.80;99.90
2729;DHT22;1372;47.956;7.830;2023-01-08T05:09:08;8.80;99.90
2729;DHT22;1372;47.956;7.830;2023-01-08T05:11:37;8.80;99.90
2729;DHT22;1372;47.956;7.830;2023-01-08T05:14:08;8.80;99.90
2729;DHT22;1372;47.956;7.830;2023-01-08T05:16:37;8.70;99.90
2729;DHT22;1372;47.956;7.830;2023-01-08T05:19:07;8.70;99.90
2729;DHT22;1372;47.956;7.830;2023-01-08T05:21:37;8.70;99.90
2729;DHT22;1372;47.956;7.830;2023-01-08T05:24:06;8.80;99.90
2729;DHT22;1372;47.956;7.830;2023-01-08T05:26:35;8.70;99.90
2729;DHT22;1372;47.956;7.830;2023-01-08T05:29:04;8.80;99.90
2729;DHT22;1372;47.956;7.830;2023-01-08T05:31:32;8.80;99.90
2729;DHT22;1372;47.956;7.830;2023-01-08T05:34:01;8.80;99.90
2729;DHT22;1372;47.956;7.830;2023-01-08T05:36:29;8.90;99.90
2729;DHT22;1372;47.956;7.830;2023-01-08T05:39:00;8.80;99.90
2729;DHT22;1372;47.956;7.830;2023-01-08T05:41:28;8.90;99.90
2729;DHT22;1372;47.956;7.830;2023-01-08T05:43:57;9.00;99.90
2729;DHT22;1372;47.956;7.830;2023-01-08T05:46:27;9.00;99.90
2729;DHT22;1372;47.956;7.830;2023-01-08T05:48:56;9.10;99.90
2729;DHT22;1372;47.956;7.830;2023-01-08T05:51:25;9.30;99.90
2729;DHT22;1372;47.956;7.830;2023-01-08T05:53:53;9.40;99.90
2729;DHT22;1372;47.956;7.830;2023-01-08T05:56:24;9.50;99.90
2729;DHT22;1372;47.956;7.830;2023-01-08T05:58:53;9.60;99.90
2729;DHT22;1372;47.956;7.830;2023-01-08T06:01:21;9.60;99.90
2729;DHT22;1372;47.956;7.830;2023-01-08T06:03:51;9.60;99.90
2729;DHT22;1372;47.956;7.830;2023-01-08T06:06:22;9.60;99.90
2729;DHT22;1372;47.956;7.830;2023-01-08T06:08:50;9.70;99.90
2729;DHT22;1372;47.956;7.830;2023-01-08T06:11:19;9.70;99.90
2729;DHT22;1372;47.956;7.830;2023-01-08T06:13:49;9.80;99.90
2729;DHT22;1372;47.956;7.830;2023-01-08T06:16:18;9.80;99.90
2729;DHT22;1372;47.956;7.830;2023-01-08T06:18:50;9.80;99.90
2729;DHT22;1372;47.956;7.830;2023-01-08T06:21:18;9.80;99.90
2729;DHT22;1372;47.956;7.830;2023-01-08T06:23:47;9.90;99.90
2729;DHT22;1372;47.956;7.830;2023-01-08T06:26:20;10.00;99.90
2729;DHT22;1372;47.956;7.830;2023-01-08T06:29:06;9.90;99.90
2729;DHT22;1372;47.956;7.830;2023-01-08T06:31:35;9.90;99.90
2729;DHT22;1372;47.956;7.830;2023-01-08T06:34:03;9.90;99.90
2729;DHT22;1372;47.956;7.830;2023-01-08T06:36:32;9.90;99.90
2729;DHT22;1372;47.956;7.830;2023-01-08T06:39:01;9.90;99.90
2729;DHT22;1372;47.956;7.830;2023-01-08T06:41:29;9.80;99.90
2729;DHT22;1372;47.956;7.830;2023-01-08T06:43:58;9.70;99.90
2729;DHT22;1372;47.956;7.830;2023-01-08T06:46:28;9.70;99.90
2729;DHT22;1372;47.956;7.830;2023-01-08T06:48:56;9.80;99.90
2729;DHT22;1372;47.956;7.830;2023-01-08T06:51:27;9.90;99.90
2729;DHT22;1372;47.956;7.830;2023-01-08T06:53:56;10.00;99.90
2729;DHT22;1372;47.956;7.830;2023-01-08T06:56:24;9.90;99.90
2729;DHT22;1372;47.956;7.830;2023-01-08T06:58:55;10.00;99.90
2729;DHT22;1372;47.956;7.830;2023-01-08T07:01:24;9.90;99.90
2729;DHT22;1372;47.956;7.830;2023-01-08T07:03:55;10.00;99.90
2729;DHT22;1372;47.956;7.830;2023-01-08T07:06:23;10.00;99.90
2729;DHT22;1372;47.956;7.830;2023-01-08T07:08:54;9.90;99.90
2729;DHT22;1372;47.956;7.830;2023-01-08T07:11:22;9.90;99.90
2729;DHT22;1372;47.956;7.830;2023-01-08T07:13:51;9.90;99.90
2729;DHT22;1372;47.956;7.830;2023-01-08T07:16:22;9.80;99.90
2729;DHT22;1372;47.956;7.830;2023-01-08T07:18:50;9.80;99.90
2729;DHT22;1372;47.956;7.830;2023-01-08T07:21:20;9.60;99.90
2729;DHT22;1372;47.956;7.830;2023-01-08T07:23:49;9.70;99.90
2729;DHT22;1372;47.956;7.830;2023-01-08T07:26:18;9.60;99.90
2729;DHT22;1372;47.956;7.830;2023-01-08T07:28:46;9.70;99.90
2729;DHT22;1372;47.956;7.830;2023-01-08T07:31:15;9.70;99.90
2729;DHT22;1372;47.956;7.830;2023-01-08T07:33:43;9.70;99.90
2729;DHT22;1372;47.956;7.830;2023-01-08T07:36:12;9.80;99.90
2729;DHT22;1372;47.956;7.830;2023-01-08T07:38:43;9.80;99.90
2729;DHT22;1372;47.956;7.830;2023-01-08T07:41:11;9.90;99.90
2729;DHT22;1372;47.956;7.830;2023-01-08T07:43:43;9.80;99.90
2729;DHT22;1372;47.956;7.830;2023-01-08T07:46:11;9.80;99.90
2729;DHT22;1372;47.956;7.830;2023-01-08T07:48:42;9.70;99.90
2729;DHT22;1372;47.956;7.830;2023-01-08T07:51:11;9.70;99.90
2729;DHT22;1372;47.956;7.830;2023-01-08T07:53:39;9.80;99.90
2729;DHT22;1372;47.956;7.830;2023-01-08T07:56:10;9.80;99.90
2729;DHT22;1372;47.956;7.830;2023-01-08T07:58:39;9.90;99.90
2729;DHT22;1372;47.956;7.830;2023-01-08T08:01:09;10.00;99.90
2729;DHT22;1372;47.956;7.830;2023-01-08T08:03:39;10.00;99.90
2729;DHT22;1372;47.956;7.830;2023-01-08T08:06:08;10.00;99.90
2729;DHT22;1372;47.956;7.830;2023-01-08T08:08:37;10.00;99.90
2729;DHT22;1372;47.956;7.830;2023-01-08T08:11:09;10.10;99.90
2729;DHT22;1372;47.956;7.830;2023-01-08T08:13:40;10.00;99.90
2729;DHT22;1372;47.956;7.830;2023-01-08T08:16:11;10.20;99.90
2729;DHT22;1372;47.956;7.830;2023-01-08T08:18:39;10.30;99.90
2729;DHT22;1372;47.956;7.830;2023-01-08T08:21:08;10.40;99.90
2729;DHT22;1372;47.956;7.830;2023-01-08T08:23:37;10.40;99.90
2729;DHT22;1372;47.956;7.830;2023-01-08T08:26:05;10.50;99.90
2729;DHT22;1372;47.956;7.830;2023-01-08T08:28:35;10.50;99.90
2729;DHT22;1372;47.956;7.830;2023-01-08T08:31:04;10.50;99.90
2729;DHT22;1372;47.956;7.830;2023-01-08T08:33:33;10.40;99.90
2729;DHT22;1372;47.956;7.830;2023-01-08T08:36:02;10.50;99.90
2729;DHT22;1372;47.956;7.830;2023-01-08T08:38:31;10.50;99.90
2729;DHT22;1372;47.956;7.830;2023-01-08T08:41:00;10.40;99.90
2729;DHT22;1372;47.956;7.830;2023-01-08T08:43:29;10.50;99.90
2729;DHT22;1372;47.956;7.830;2023-01-08T08:46:00;10.50;99.90
2729;DHT22;1372;47.956;7.830;2023-01-08T08:48:28;10.40;99.90
2729;DHT22;1372;47.956;7.830;2023-01-08T08:50:57;10.30;99.90
2729;DHT22;1372;47.956;7.830;2023-01-08T08:53:28;10.40;99.90
2729;DHT22;1372;47.956;7.830;2023-01-08T08:55:57;10.50;99.90
2729;DHT22;1372;47.956;7.830;2023-01-08T08:58:26;10.50;99.90
2729;DHT22;1372;47.956;7.830;2023-01-08T09:01:15;10.60;99.90
2729;DHT22;1372;47.956;7.830;2023-01-08T09:03:46;10.50;99.90
2729;DHT22;1372;47.956;7.830;2023-01-08T09:06:15;10.40;99.90
2729;DHT22;1372;47.956;7.830;2023-01-08T09:08:44;10.50;99.90
2729;DHT22;1372;47.956;7.830;2023-01-08T09:11:13;10.60;99.90
2729;DHT22;1372;47.956;7.830;2023-01-08T09:13:42;10.50;99.90
2729;DHT22;1372;47.956;7.830;2023-01-08T09:16:10;10.50;99.90
2729;DHT22;1372;47.956;7.830;2023-01-08T09:18:43;10.40;99.90
2729;DHT22;1372;47.956;7.830;2023-01-08T09:21:12;10.30;99.90
2729;DHT22;1372;47.956;7.830;2023-01-08T09:23:40;10.50;99.90
2729;DHT22;1372;47.956;7.830;2023-01-08T09:26:11;10.40;99.90
2729;DHT22;1372;47.956;7.830;2023-01-08T09:28:39;10.30;99.90
2729;DHT22;1372;47.956;7.830;2023-01-08T09:31:08;10.20;99.90
2729;DHT22;1372;47.956;7.830;2023-01-08T09:33:37;10.20;99.90
2729;DHT22;1372;47.956;7.830;2023-01-08T09:36:10;10.20;99.90
2729;DHT22;1372;47.956;7.830;2023-01-08T09:38:38;10.20;99.90
2729;DHT22;1372;47.956;7.830;2023-01-08T09:41:12;10.30;99.90
2729;DHT22;1372;47.956;7.830;2023-01-08T09:43:46;10.30;99.90
2729;DHT22;1372;47.956;7.830;2023-01-08T09:46:21;10.50;99.90
2729;DHT22;1372;47.956;7.830;2023-01-08T09:48:52;10.50;99.90
2729;DHT22;1372;47.956;7.830;2023-01-08T09:51:32;10.60;99.90
2729;DHT22;1372;47.956;7.830;2023-01-08T09:54:02;10.60;99.90
2729;DHT22;1372;47.956;7.830;2023-01-08T09:56:39;10.50;99.90
2729;DHT22;1372;47.956;7.830;2023-01-08T09:59:11;10.40;99.90
2729;DHT22;1372;47.956;7.830;2023-01-08T10:01:42;10.40;99.90
2729;DHT22;1372;47.956;7.830;2023-01-08T10:04:14;10.40;99.90
2729;DHT22;1372;47.956;7.830;2023-01-08T10:06:49;10.20;99.90
2729;DHT22;1372;47.956;7.830;2023-01-08T10:09:23;10.20;99.90
2729;DHT22;1372;47.956;7.830;2023-01-08T10:11:55;10.20;99.90
2729;DHT22;1372;47.956;7.830;2023-01-08T10:14:29;10.20;99.90
2729;DHT22;1372;47.956;7.830;2023-01-08T10:17:01;10.10;99.90
2729;DHT22;1372;47.956;7.830;2023-01-08T10:19:35;10.20;99.90
2729;DHT22;1372;47.956;7.830;2023-01-08T10:22:12;10.20;99.90
2729;DHT22;1372;47.956;7.830;2023-01-08T10:24:43;10.30;99.90
2729;DHT22;1372;47.956;7.830;2023-01-08T10:27:13;10.30;99.90
2729;DHT22;1372;47.956;7.830;2023-01-08T10:29:43;10.20;99.90
2729;DHT22;1372;47.956;7.830;2023-01-08T10:32:14;10.20;99.90
2729;DHT22;1372;47.956;7.830;2023-01-08T10:34:45;10.20;99.90
2729;DHT22;1372;47.956;7.830;2023-01-08T10:37:22;10.20;99.90
2729;DHT22;1372;47.956;7.830;2023-01-08T10:39:55;10.20;99.90
2729;DHT22;1372;47.956;7.830;2023-01-08T10:42:33;10.20;99.90
2729;DHT22;1372;47.956;7.830;2023-01-08T10:45:08;10.10;99.90
2729;DHT22;1372;47.956;7.830;2023-01-08T10:47:45;10.20;99.90
2729;DHT22;1372;47.956;7.830;2023-01-08T10:50:20;10.20;99.90
2729;DHT22;1372;47.956;7.830;2023-01-08T10:52:53;10.20;99.90
2729;DHT22;1372;47.956;7.830;2023-01-08T10:55:25;10.20;99.90
2729;DHT22;1372;47.956;7.830;2023-01-08T10:57:58;10.20;99.90
2729;DHT22;1372;47.956;7.830;2023-01-08T11:00:29;10.20;99.90
2729;DHT22;1372;47.956;7.830;2023-01-08T11:03:00;10.20;99.90
2729;DHT22;1372;47.956;7.830;2023-01-08T11:05:34;10.20;99.90
2729;DHT22;1372;47.956;7.830;2023-01-08T11:08:13;10.30;99.90
2729;DHT22;1372;47.956;7.830;2023-01-08T11:10:53;10.30;99.90
2729;DHT22;1372;47.956;7.830;2023-01-08T11:13:22;10.30;99.90
2729;DHT22;1372;47.956;7.830;2023-01-08T11:16:00;10.30;99.90
2729;DHT22;1372;47.956;7.830;2023-01-08T11:18:30;10.20;99.90
2729;DHT22;1372;47.956;7.830;2023-01-08T11:21:08;10.30;99.90
2729;DHT22;1372;47.956;7.830;2023-01-08T11:23:39;10.30;99.90
2729;DHT22;1372;47.956;7.830;2023-01-08T11:26:10;10.30;99.90
2729;DHT22;1372;47.956;7.830;2023-01-08T11:28:48;10.40;99.90
2729;DHT22;1372;47.956;7.830;2023-01-08T11:31:24;10.30;99.90
2729;DHT22;1372;47.956;7.830;2023-01-08T11:34:06;10.40;99.90
2729;DHT22;1372;47.956;7.830;2023-01-08T11:36:45;10.30;99.90
2729;DHT22;1372;47.956;7.830;2023-01-08T11:39:18;10.40;99.90
2729;DHT22;1372;47.956;7.830;2023-01-08T11:45:14;10.30;99.90
2729;DHT22;1372;47.956;7.830;2023-01-08T11:47:58;10.30;99.90
2729;DHT22;1372;47.956;7.830;2023-01-08T11:50:42;10.30;99.90
2729;DHT22;1372;47.956;7.830;2023-01-08T11:53:22;10.30;99.90
2729;DHT22;1372;47.956;7.830;2023-01-08T11:56:04;10.20;99.90
2729;DHT22;1372;47.956;7.830;2023-01-08T11:58:52;10.20;99.90
2729;DHT22;1372;47.956;7.830;2023-01-08T12:01:42;10.20;99.90
2729;DHT22;1372;47.956;7.830;2023-01-08T12:04:55;10.20;99.90
2729;DHT22;1372;47.956;7.830;2023-01-08T12:07:34;10.20;99.90
2729;DHT22;1372;47.956;7.830;2023-01-08T12:10:14;10.20;99.90
2729;DHT22;1372;47.956;7.830;2023-01-08T12:12:59;10.20;99.90
2729;DHT22;1372;47.956;7.830;2023-01-08T12:15:40;10.20;99.90
2729;DHT22;1372;47.956;7.830;2023-01-08T12:18:32;10.20;99.90
2729;DHT22;1372;47.956;7.830;2023-01-08T12:21:14;10.20;99.90
2729;DHT22;1372;47.956;7.830;2023-01-08T12:24:09;10.10;99.90
2729;DHT22;1372;47.956;7.830;2023-01-08T12:26:48;10.10;99.90
2729;DHT22;1372;47.956;7.830;2023-01-08T12:29:53;10.10;99.90
2729;DHT22;1372;47.956;7.830;2023-01-08T12:32:55;10.00;99.90
2729;DHT22;1372;47.956;7.830;2023-01-08T12:35:33;10.00;99.90
2729;DHT22;1372;47.956;7.830;2023-01-08T12:38:23;10.00;99.90
2729;DHT22;1372;47.956;7.830;2023-01-08T12:41:06;10.00;99.90
2729;DHT22;1372;47.956;7.830;2023-01-08T12:43:44;10.00;99.90
2729;DHT22;1372;47.956;7.830;2023-01-08T12:46:19;10.00;99.90
2729;DHT22;1372;47.956;7.830;2023-01-08T12:48:52;10.00;99.90
2729;DHT22;1372;47.956;7.830;2023-01-08T12:51:27;10.00;99.90
2729;DHT22;1372;47.956;7.830;2023-01-08T12:54:09;10.00;99.90
2729;DHT22;1372;47.956;7.830;2023-01-08T12:56:48;9.90;99.90
2729;DHT22;1372;47.956;7.830;2023-01-08T12:59:29;9.90;99.90
2729;DHT22;1372;47.956;7.830;2023-01-08T13:02:12;9.80;99.90
2729;DHT22;1372;47.956;7.830;2023-01-08T13:04:46;9.80;99.90
2729;DHT22;1372;47.956;7.830;2023-01-08T13:07:18;9.70;99.90
2729;DHT22;1372;47.956;7.830;2023-01-08T13:09:54;9.70;99.90
2729;DHT22;1372;47.956;7.830;2023-01-08T13:12:30;9.70;99.90
2729;DHT22;1372;47.956;7.830;2023-01-08T13:15:02;9.60;99.90
2729;DHT22;1372;47.956;7.830;2023-01-08T13:17:33;9.60;99.90
2729;DHT22;1372;47.956;7.830;2023-01-08T13:20:06;9.50;99.90
2729;DHT22;1372;47.956;7.830;2023-01-08T13:22:36;9.60;99.90
2729;DHT22;1372;47.956;7.830;2023-01-08T13:25:24;9.50;99.90
2729;DHT22;1372;47.956;7.830;2023-01-08T13:27:56;9.50;99.90
2729;DHT22;1372;47.956;7.830;2023-01-08T13:30:34;9.60;99.90
2729;DHT22;1372;47.956;7.830;2023-01-08T13:33:35;9.50;99.90
2729;DHT22;1372;47.956;7.830;2023-01-08T13:36:18;9.50;99.90
2729;DHT22;1372;47.956;7.830;2023-01-08T13:38:59;9.50;99.90
2729;DHT22;1372;47.956;7.830;2023-01-08T13:41:30;9.40;99.90
2729;DHT22;1372;47.956;7.830;2023-01-08T13:44:02;9.50;99.90
2729;DHT22;1372;47.956;7.830;2023-01-08T13:46:35;9.50;99.90
2729;DHT22;1372;47.956;7.830;2023-01-08T13:49:15;9.40;99.90
2729;DHT22;1372;47.956;7.830;2023-01-08T13:51:49;9.50;99.90
2729;DHT22;1372;47.956;7.830;2023-01-08T13:54:29;9.50;99.90
2729;DHT22;1372;47.956;7.830;2023-01-08T13:57:04;9.60;99.90
2729;DHT22;1372;47.956;7.830;2023-01-08T13:59:40;9.60;99.90
2729;DHT22;1372;47.956;7.830;2023-01-08T14:02:28;9.50;99.90
2729;DHT22;1372;47.956;7.830;2023-01-08T14:05:16;9.50;99.90
2729;DHT22;1372;47.956;7.830;2023-01-08T14:07:50;9.40;99.90
2729;DHT22;1372;47.956;7.830;2023-01-08T14:10:20;9.40;99.90
2729;DHT22;1372;47.956;7.830;2023-01-08T14:12:51;9.40;99.90
2729;DHT22;1372;47.956;7.830;2023-01-08T14:15:23;9.40;99.90
2729;DHT22;1372;47.956;7.830;2023-01-08T14:17:53;9.50;99.90
2729;DHT22;1372;47.956;7.830;2023-01-08T14:20:33;9.40;99.90
2729;DHT22;1372;47.956;7.830;2023-01-08T14:23:09;9.40;99.90
2729;DHT22;1372;47.956;7.830;2023-01-08T14:25:40;9.40;99.90
2729;DHT22;1372;47.956;7.830;2023-01-08T14:28:15;9.40;99.90
2729;DHT22;1372;47.956;7.830;2023-01-08T14:30:49;9.40;99.90
2729;DHT22;1372;47.956;7.830;2023-01-08T14:33:23;9.40;99.90
2729;DHT22;1372;47.956;7.830;2023-01-08T14:35:55;9.40;99.90
2729;DHT22;1372;47.956;7.830;2023-01-08T14:38:24;9.40;99.90
2729;DHT22;1372;47.956;7.830;2023-01-08T14:40:59;9.40;99.90
2729;DHT22;1372;47.956;7.830;2023-01-08T14:43:32;9.50;99.90
2729;DHT22;1372;47.956;7.830;2023-01-08T14:46:01;9.40;99.90
2729;DHT22;1372;47.956;7.830;2023-01-08T14:48:33;9.40;99.90
2729;DHT22;1372;47.956;7.830;2023-01-08T14:51:10;9.40;99.90
2729;DHT22;1372;47.956;7.830;2023-01-08T14:53:45;9.40;99.90
2729;DHT22;1372;47.956;7.830;2023-01-08T14:56:16;9.40;99.90
2729;DHT22;1372;47.956;7.830;2023-01-08T14:58:48;9.40;99.90
2729;DHT22;1372;47.956;7.830;2023-01-08T15:01:18;9.40;99.90
2729;DHT22;1372;47.956;7.830;2023-01-08T15:03:49;9.40;99.90
2729;DHT22;1372;47.956;7.830;2023-01-08T15:06:28;9.40;99.90
2729;DHT22;1372;47.956;7.830;2023-01-08T15:08:59;9.40;99.90
2729;DHT22;1372;47.956;7.830;2023-01-08T15:11:30;9.40;99.90
2729;DHT22;1372;47.956;7.830;2023-01-08T15:14:11;9.50;99.90
2729;DHT22;1372;47.956;7.830;2023-01-08T15:16:41;9.50;99.90
2729;DHT22;1372;47.956;7.830;2023-01-08T15:19:12;9.40;99.90
2729;DHT22;1372;47.956;7.830;2023-01-08T15:21:46;9.40;99.90
2729;DHT22;1372;47.956;7.830;2023-01-08T15:24:21;9.40;99.90
2729;DHT22;1372;47.956;7.830;2023-01-08T15:26:51;9.40;99.90
2729;DHT22;1372;47.956;7.830;2023-01-08T15:29:24;9.40;99.90
2729;DHT22;1372;47.956;7.830;2023-01-08T15:31:55;9.40;99.90
2729;DHT22;1372;47.956;7.830;2023-01-08T15:34:23;9.40;99.90
2729;DHT22;1372;47.956;7.830;2023-01-08T15:36:53;9.40;99.90
2729;DHT22;1372;47.956;7.830;2023-01-08T15:39:22;9.40;99.90
2729;DHT22;1372;47.956;7.830;2023-01-08T15:41:51;9.50;99.90
2729;DHT22;1372;47.956;7.830;2023-01-08T15:44:42;9.50;99.90
2729;DHT22;1372;47.956;7.830;2023-01-08T15:47:11;9.40;99.90
2729;DHT22;1372;47.956;7.830;2023-01-08T15:49:40;9.40;99.90
2729;DHT22;1372;47.956;7.830;2023-01-08T15:52:12;9.50;99.90
2729;DHT22;1372;47.956;7.830;2023-01-08T15:54:41;9.40;99.90
2729;DHT22;1372;47.956;7.830;2023-01-08T15:57:10;9.50;99.90
2729;DHT22;1372;47.956;7.830;2023-01-08T15:59:41;9.40;99.90
2729;DHT22;1372;47.956;7.830;2023-01-08T16:02:10;9.30;99.90
2729;DHT22;1372;47.956;7.830;2023-01-08T16:04:39;9.30;99.90
2729;DHT22;1372;47.956;7.830;2023-01-08T16:07:08;9.40;99.90
2729;DHT22;1372;47.956;7.830;2023-01-08T16:09:39;9.40;99.90
2729;DHT22;1372;47.956;7.830;2023-01-08T16:12:07;9.40;99.90
2729;DHT22;1372;47.956;7.830;2023-01-08T16:14:36;9.30;99.90
2729;DHT22;1372;47.956;7.830;2023-01-08T16:17:05;9.30;99.90
2729;DHT22;1372;47.956;7.830;2023-01-08T16:19:34;9.30;99.90
2729;DHT22;1372;47.956;7.830;2023-01-08T16:22:03;9.30;99.90
2729;DHT22;1372;47.956;7.830;2023-01-08T16:24:31;9.30;99.90
2729;DHT22;1372;47.956;7.830;2023-01-08T16:27:02;9.20;99.90
2729;DHT22;1372;47.956;7.830;2023-01-08T16:29:33;9.30;99.90
2729;DHT22;1372;47.956;7.830;2023-01-08T16:32:02;9.30;99.90
2729;DHT22;1372;47.956;7.830;2023-01-08T16:34:31;9.30;99.90
2729;DHT22;1372;47.956;7.830;2023-01-08T16:37:00;9.20;99.90
2729;DHT22;1372;47.956;7.830;2023-01-08T16:39:29;9.20;99.90
2729;DHT22;1372;47.956;7.830;2023-01-08T16:41:59;9.30;99.90
2729;DHT22;1372;47.956;7.830;2023-01-08T16:44:33;9.20;99.90
2729;DHT22;1372;47.956;7.830;2023-01-08T16:47:03;9.30;99.90
2729;DHT22;1372;47.956;7.830;2023-01-08T16:49:32;9.20;99.90